KCIC

Chico Municipal Airport

Chico, California, USA
METAR KCIC 211458Z 00000KT 40SM FEW120 09/02 A2998
Observed Flight Rules
Oct-21 @ 14:58 UTC (35 minutes ago) Visual Flight Rules
Visibility Clouds
40 miles
  • Few at 12,000' AGL
Temperatures Readings
Current 9°C / 48°F
Dewpoint 2°C / 36°F
Humidity 62%
Altimeter 29.98" Hg
Pressure 1015 hPa
Elevation 73
METAR KCIC 211458Z 00000KT 40SM FEW120 09/02 A2998
Observed Flight Rules
Oct-21 @ 14:58 UTC
(35 minutes ago)
VFR
Clouds
  • Few at 12,000' AGL
Temperature Dewpoint
9°C / 48°F 2°C / 36°F
Humidity Altimeter Pressure
62% 29.98" Hg 1015 hPa